sensor_id;sensor_type;location;lat;lon;timestamp;temperature;humidity
27619;DHT22;15039;50.830;4.730;2023-09-18T00:00:27;21.00;99.90
27619;DHT22;15039;50.830;4.730;2023-09-18T00:02:55;21.00;99.90
27619;DHT22;15039;50.830;4.730;2023-09-18T00:05:23;20.90;99.90
27619;DHT22;15039;50.830;4.730;2023-09-18T00:07:49;20.90;99.90
27619;DHT22;15039;50.830;4.730;2023-09-18T00:10:15;21.00;99.90
27619;DHT22;15039;50.830;4.730;2023-09-18T00:12:43;20.90;99.90
27619;DHT22;15039;50.830;4.730;2023-09-18T00:15:09;20.90;99.90
27619;DHT22;15039;50.830;4.730;2023-09-18T00:17:35;20.80;99.90
27619;DHT22;15039;50.830;4.730;2023-09-18T00:20:01;20.80;99.90
27619;DHT22;15039;50.830;4.730;2023-09-18T00:22:26;20.90;99.90
27619;DHT22;15039;50.830;4.730;2023-09-18T00:24:52;20.90;99.90
27619;DHT22;15039;50.830;4.730;2023-09-18T00:27:18;21.00;99.90
27619;DHT22;15039;50.830;4.730;2023-09-18T00:29:45;21.20;99.90
27619;DHT22;15039;50.830;4.730;2023-09-18T00:32:11;21.20;99.90
27619;DHT22;15039;50.830;4.730;2023-09-18T00:34:36;21.30;99.90
27619;DHT22;15039;50.830;4.730;2023-09-18T00:37:02;21.20;99.90
27619;DHT22;15039;50.830;4.730;2023-09-18T00:39:28;21.20;99.90
27619;DHT22;15039;50.830;4.730;2023-09-18T00:41:53;21.20;99.90
27619;DHT22;15039;50.830;4.730;2023-09-18T00:44:20;21.20;99.90
27619;DHT22;15039;50.830;4.730;2023-09-18T00:46:45;21.20;99.90
27619;DHT22;15039;50.830;4.730;2023-09-18T00:49:11;21.20;99.90
27619;DHT22;15039;50.830;4.730;2023-09-18T00:51:37;21.20;99.90
27619;DHT22;15039;50.830;4.730;2023-09-18T00:54:03;21.10;99.90
27619;DHT22;15039;50.830;4.730;2023-09-18T00:56:30;21.00;99.90
27619;DHT22;15039;50.830;4.730;2023-09-18T00:58:56;21.20;99.90
27619;DHT22;15039;50.830;4.730;2023-09-18T01:01:23;21.30;99.90
27619;DHT22;15039;50.830;4.730;2023-09-18T01:03:49;21.20;99.90
27619;DHT22;15039;50.830;4.730;2023-09-18T01:06:16;21.20;99.90
27619;DHT22;15039;50.830;4.730;2023-09-18T01:08:45;21.10;99.90
27619;DHT22;15039;50.830;4.730;2023-09-18T01:11:17;21.00;99.90
27619;DHT22;15039;50.830;4.730;2023-09-18T01:13:45;21.10;99.90
27619;DHT22;15039;50.830;4.730;2023-09-18T01:16:17;21.10;99.90
27619;DHT22;15039;50.830;4.730;2023-09-18T01:18:51;21.10;99.90
27619;DHT22;15039;50.830;4.730;2023-09-18T01:21:21;21.00;99.90
27619;DHT22;15039;50.830;4.730;2023-09-18T01:23:47;21.00;99.90
27619;DHT22;15039;50.830;4.730;2023-09-18T01:26:14;21.00;99.90
27619;DHT22;15039;50.830;4.730;2023-09-18T01:28:39;21.10;99.90
27619;DHT22;15039;50.830;4.730;2023-09-18T01:31:05;21.10;99.90
27619;DHT22;15039;50.830;4.730;2023-09-18T01:33:32;21.10;99.90
27619;DHT22;15039;50.830;4.730;2023-09-18T01:35:59;21.20;99.90
27619;DHT22;15039;50.830;4.730;2023-09-18T01:38:31;21.30;99.90
27619;DHT22;15039;50.830;4.730;2023-09-18T01:44:12;21.20;99.90
27619;DHT22;15039;50.830;4.730;2023-09-18T01:47:03;21.20;99.90
27619;DHT22;15039;50.830;4.730;2023-09-18T01:49:37;21.00;99.90
27619;DHT22;15039;50.830;4.730;2023-09-18T01:52:06;21.00;99.90
27619;DHT22;15039;50.830;4.730;2023-09-18T01:54:40;21.00;99.90
27619;DHT22;15039;50.830;4.730;2023-09-18T01:57:09;20.90;99.90
27619;DHT22;15039;50.830;4.730;2023-09-18T01:59:40;20.90;99.90
27619;DHT22;15039;50.830;4.730;2023-09-18T02:02:10;20.90;99.90
27619;DHT22;15039;50.830;4.730;2023-09-18T02:04:37;20.90;99.90
27619;DHT22;15039;50.830;4.730;2023-09-18T02:07:05;20.90;99.90
27619;DHT22;15039;50.830;4.730;2023-09-18T02:09:31;20.70;99.90
27619;DHT22;15039;50.830;4.730;2023-09-18T02:11:56;20.70;99.90
27619;DHT22;15039;50.830;4.730;2023-09-18T02:14:24;20.60;99.90
27619;DHT22;15039;50.830;4.730;2023-09-18T02:16:51;20.70;99.90
27619;DHT22;15039;50.830;4.730;2023-09-18T02:19:17;20.70;99.90
27619;DHT22;15039;50.830;4.730;2023-09-18T02:21:44;20.80;99.90
27619;DHT22;15039;50.830;4.730;2023-09-18T02:24:10;20.80;99.90
27619;DHT22;15039;50.830;4.730;2023-09-18T02:26:36;20.80;99.90
27619;DHT22;15039;50.830;4.730;2023-09-18T02:29:05;20.70;99.90
27619;DHT22;15039;50.830;4.730;2023-09-18T02:31:32;20.90;99.90
27619;DHT22;15039;50.830;4.730;2023-09-18T02:34:04;20.90;99.90
27619;DHT22;15039;50.830;4.730;2023-09-18T02:36:49;20.90;99.90
27619;DHT22;15039;50.830;4.730;2023-09-18T02:39:15;20.90;99.90
27619;DHT22;15039;50.830;4.730;2023-09-18T02:41:42;21.00;99.90
27619;DHT22;15039;50.830;4.730;2023-09-18T02:44:09;20.90;99.90
27619;DHT22;15039;50.830;4.730;2023-09-18T02:46:49;20.90;99.90
27619;DHT22;15039;50.830;4.730;2023-09-18T02:49:14;20.90;99.90
27619;DHT22;15039;50.830;4.730;2023-09-18T02:51:40;20.80;99.90
27619;DHT22;15039;50.830;4.730;2023-09-18T02:54:07;20.80;99.90
27619;DHT22;15039;50.830;4.730;2023-09-18T02:56:34;20.80;99.90
27619;DHT22;15039;50.830;4.730;2023-09-18T02:59:01;20.80;99.90
27619;DHT22;15039;50.830;4.730;2023-09-18T03:01:40;20.70;99.90
27619;DHT22;15039;50.830;4.730;2023-09-18T03:04:39;20.80;99.90
27619;DHT22;15039;50.830;4.730;2023-09-18T03:07:14;20.90;99.90
27619;DHT22;15039;50.830;4.730;2023-09-18T03:09:41;20.90;99.90
27619;DHT22;15039;50.830;4.730;2023-09-18T03:12:13;20.90;99.90
27619;DHT22;15039;50.830;4.730;2023-09-18T03:14:48;20.90;99.90
27619;DHT22;15039;50.830;4.730;2023-09-18T03:17:14;20.80;99.90
27619;DHT22;15039;50.830;4.730;2023-09-18T03:19:43;20.70;99.90
27619;DHT22;15039;50.830;4.730;2023-09-18T03:22:41;20.70;99.90
27619;DHT22;15039;50.830;4.730;2023-09-18T03:25:20;20.60;99.90
27619;DHT22;15039;50.830;4.730;2023-09-18T03:28:08;20.60;99.90
27619;DHT22;15039;50.830;4.730;2023-09-18T03:30:40;20.70;99.90
27619;DHT22;15039;50.830;4.730;2023-09-18T03:33:19;20.60;99.90
27619;DHT22;15039;50.830;4.730;2023-09-18T03:35:46;20.50;99.90
27619;DHT22;15039;50.830;4.730;2023-09-18T03:38:39;20.50;99.90
27619;DHT22;15039;50.830;4.730;2023-09-18T03:41:25;20.50;99.90
27619;DHT22;15039;50.830;4.730;2023-09-18T03:44:21;20.50;99.90
27619;DHT22;15039;50.830;4.730;2023-09-18T03:47:22;20.40;99.90
27619;DHT22;15039;50.830;4.730;2023-09-18T03:49:59;20.30;99.90
27619;DHT22;15039;50.830;4.730;2023-09-18T03:52:33;20.30;99.90
27619;DHT22;15039;50.830;4.730;2023-09-18T03:55:40;20.20;99.90
27619;DHT22;15039;50.830;4.730;2023-09-18T03:58:50;20.20;99.90
27619;DHT22;15039;50.830;4.730;2023-09-18T04:01:40;20.20;99.90
27619;DHT22;15039;50.830;4.730;2023-09-18T04:06:59;20.20;99.90
27619;DHT22;15039;50.830;4.730;2023-09-18T04:09:43;20.10;99.90
27619;DHT22;15039;50.830;4.730;2023-09-18T04:12:33;20.10;99.90
27619;DHT22;15039;50.830;4.730;2023-09-18T04:15:18;20.00;99.90
27619;DHT22;15039;50.830;4.730;2023-09-18T04:18:12;20.10;99.90
27619;DHT22;15039;50.830;4.730;2023-09-18T04:20:42;20.00;99.90
27619;DHT22;15039;50.830;4.730;2023-09-18T04:23:18;20.10;99.90
27619;DHT22;15039;50.830;4.730;2023-09-18T04:25:45;20.00;99.90
27619;DHT22;15039;50.830;4.730;2023-09-18T04:28:20;20.00;99.90
27619;DHT22;15039;50.830;4.730;2023-09-18T04:31:06;20.00;99.90
27619;DHT22;15039;50.830;4.730;2023-09-18T04:33:33;20.00;99.90
27619;DHT22;15039;50.830;4.730;2023-09-18T04:36:01;19.90;99.90
27619;DHT22;15039;50.830;4.730;2023-09-18T04:38:28;19.90;99.90
27619;DHT22;15039;50.830;4.730;2023-09-18T04:41:15;19.90;99.90
27619;DHT22;15039;50.830;4.730;2023-09-18T04:43:42;19.80;99.90
27619;DHT22;15039;50.830;4.730;2023-09-18T04:46:13;19.70;99.90
27619;DHT22;15039;50.830;4.730;2023-09-18T04:48:50;19.80;99.90
27619;DHT22;15039;50.830;4.730;2023-09-18T04:51:20;19.70;99.90
27619;DHT22;15039;50.830;4.730;2023-09-18T04:53:55;19.70;99.90
27619;DHT22;15039;50.830;4.730;2023-09-18T04:56:31;19.70;99.90
27619;DHT22;15039;50.830;4.730;2023-09-18T04:58:56;19.70;99.90
27619;DHT22;15039;50.830;4.730;2023-09-18T05:01:23;19.60;99.90
27619;DHT22;15039;50.830;4.730;2023-09-18T05:03:50;19.60;99.90
27619;DHT22;15039;50.830;4.730;2023-09-18T05:06:17;19.50;99.90
27619;DHT22;15039;50.830;4.730;2023-09-18T05:08:44;19.60;99.90
27619;DHT22;15039;50.830;4.730;2023-09-18T05:11:09;19.50;99.90
27619;DHT22;15039;50.830;4.730;2023-09-18T05:13:35;19.50;99.90
27619;DHT22;15039;50.830;4.730;2023-09-18T05:16:02;19.50;99.90
27619;DHT22;15039;50.830;4.730;2023-09-18T05:18:29;19.50;99.90
27619;DHT22;15039;50.830;4.730;2023-09-18T05:20:56;19.50;99.90
27619;DHT22;15039;50.830;4.730;2023-09-18T05:23:21;19.40;99.90
27619;DHT22;15039;50.830;4.730;2023-09-18T05:25:47;19.50;99.90
27619;DHT22;15039;50.830;4.730;2023-09-18T05:28:13;19.40;99.90
27619;DHT22;15039;50.830;4.730;2023-09-18T05:30:42;19.40;99.90
27619;DHT22;15039;50.830;4.730;2023-09-18T05:33:07;19.30;99.90
27619;DHT22;15039;50.830;4.730;2023-09-18T05:35:36;19.30;99.90
27619;DHT22;15039;50.830;4.730;2023-09-18T05:38:09;19.30;99.90
27619;DHT22;15039;50.830;4.730;2023-09-18T05:44:10;19.30;99.90
27619;DHT22;15039;50.830;4.730;2023-09-18T05:49:53;19.30;99.90
27619;DHT22;15039;50.830;4.730;2023-09-18T05:52:21;19.40;99.90
27619;DHT22;15039;50.830;4.730;2023-09-18T05:54:56;19.40;99.90
27619;DHT22;15039;50.830;4.730;2023-09-18T05:57:23;19.40;99.90
27619;DHT22;15039;50.830;4.730;2023-09-18T05:59:56;19.40;99.90
27619;DHT22;15039;50.830;4.730;2023-09-18T06:02:29;19.40;99.90
27619;DHT22;15039;50.830;4.730;2023-09-18T06:05:00;19.40;99.90
27619;DHT22;15039;50.830;4.730;2023-09-18T06:07:28;19.40;99.90
27619;DHT22;15039;50.830;4.730;2023-09-18T06:09:55;19.40;99.90
27619;DHT22;15039;50.830;4.730;2023-09-18T06:12:22;19.40;99.90
27619;DHT22;15039;50.830;4.730;2023-09-18T06:14:49;19.40;99.90
27619;DHT22;15039;50.830;4.730;2023-09-18T06:17:14;19.40;99.90
27619;DHT22;15039;50.830;4.730;2023-09-18T06:19:40;19.50;99.90
27619;DHT22;15039;50.830;4.730;2023-09-18T06:22:06;19.40;99.90
27619;DHT22;15039;50.830;4.730;2023-09-18T06:24:33;19.40;99.90
27619;DHT22;15039;50.830;4.730;2023-09-18T06:27:02;19.40;99.90
27619;DHT22;15039;50.830;4.730;2023-09-18T06:29:34;19.40;99.90
27619;DHT22;15039;50.830;4.730;2023-09-18T06:32:03;19.40;99.90
27619;DHT22;15039;50.830;4.730;2023-09-18T06:34:28;19.40;99.90
27619;DHT22;15039;50.830;4.730;2023-09-18T06:36:54;19.40;99.90
27619;DHT22;15039;50.830;4.730;2023-09-18T06:39:20;19.50;99.90
27619;DHT22;15039;50.830;4.730;2023-09-18T06:41:48;19.40;99.90
27619;DHT22;15039;50.830;4.730;2023-09-18T06:44:14;19.50;99.90
27619;DHT22;15039;50.830;4.730;2023-09-18T06:46:41;19.50;99.90
27619;DHT22;15039;50.830;4.730;2023-09-18T06:49:12;19.40;99.90
27619;DHT22;15039;50.830;4.730;2023-09-18T06:51:40;19.40;99.90
27619;DHT22;15039;50.830;4.730;2023-09-18T06:54:13;19.50;99.90
27619;DHT22;15039;50.830;4.730;2023-09-18T06:56:59;19.50;99.90
27619;DHT22;15039;50.830;4.730;2023-09-18T06:59:41;19.60;99.90
27619;DHT22;15039;50.830;4.730;2023-09-18T07:02:34;19.60;99.90
27619;DHT22;15039;50.830;4.730;2023-09-18T07:05:00;19.50;99.90
27619;DHT22;15039;50.830;4.730;2023-09-18T07:07:26;19.50;99.90
27619;DHT22;15039;50.830;4.730;2023-09-18T07:09:53;19.50;99.90
27619;DHT22;15039;50.830;4.730;2023-09-18T07:12:18;19.60;99.90
27619;DHT22;15039;50.830;4.730;2023-09-18T07:17:32;19.60;99.90
27619;DHT22;15039;50.830;4.730;2023-09-18T07:23:15;19.60;99.90
27619;DHT22;15039;50.830;4.730;2023-09-18T07:38:03;19.70;99.90
27619;DHT22;15039;50.830;4.730;2023-09-18T07:41:31;19.60;99.90
27619;DHT22;15039;50.830;4.730;2023-09-18T07:44:12;19.70;99.90
27619;DHT22;15039;50.830;4.730;2023-09-18T07:47:16;19.70;99.90
27619;DHT22;15039;50.830;4.730;2023-09-18T07:53:06;19.80;99.90
27619;DHT22;15039;50.830;4.730;2023-09-18T07:55:56;19.80;99.90
27619;DHT22;15039;50.830;4.730;2023-09-18T07:58:49;19.90;99.90
27619;DHT22;15039;50.830;4.730;2023-09-18T08:01:30;19.90;99.90
27619;DHT22;15039;50.830;4.730;2023-09-18T08:04:23;20.00;99.90
27619;DHT22;15039;50.830;4.730;2023-09-18T08:07:27;20.00;99.90
27619;DHT22;15039;50.830;4.730;2023-09-18T08:16:38;20.40;99.90
27619;DHT22;15039;50.830;4.730;2023-09-18T08:19:06;20.50;99.90
27619;DHT22;15039;50.830;4.730;2023-09-18T08:21:42;20.50;99.90
27619;DHT22;15039;50.830;4.730;2023-09-18T08:24:27;20.50;99.90
27619;DHT22;15039;50.830;4.730;2023-09-18T08:27:33;20.60;99.90
27619;DHT22;15039;50.830;4.730;2023-09-18T08:30:15;20.70;99.90
27619;DHT22;15039;50.830;4.730;2023-09-18T08:36:09;20.80;99.90
27619;DHT22;15039;50.830;4.730;2023-09-18T08:42:02;21.20;99.90
27619;DHT22;15039;50.830;4.730;2023-09-18T08:46:01;21.40;99.90
27619;DHT22;15039;50.830;4.730;2023-09-18T08:48:39;21.50;99.90
27619;DHT22;15039;50.830;4.730;2023-09-18T08:51:30;21.50;99.90
27619;DHT22;15039;50.830;4.730;2023-09-18T08:54:18;21.60;99.90
27619;DHT22;15039;50.830;4.730;2023-09-18T08:57:05;21.60;99.90
27619;DHT22;15039;50.830;4.730;2023-09-18T08:59:53;21.80;99.90
27619;DHT22;15039;50.830;4.730;2023-09-18T09:02:45;21.90;99.90
27619;DHT22;15039;50.830;4.730;2023-09-18T09:05:45;21.80;99.90
27619;DHT22;15039;50.830;4.730;2023-09-18T09:08:14;21.80;99.90
27619;DHT22;15039;50.830;4.730;2023-09-18T09:11:04;21.80;99.90
27619;DHT22;15039;50.830;4.730;2023-09-18T09:13:38;21.90;99.90
27619;DHT22;15039;50.830;4.730;2023-09-18T09:16:11;21.90;99.90
27619;DHT22;15039;50.830;4.730;2023-09-18T09:19:08;22.00;99.90
27619;DHT22;15039;50.830;4.730;2023-09-18T09:21:40;22.10;99.90
27619;DHT22;15039;50.830;4.730;2023-09-18T09:24:13;22.10;99.90
27619;DHT22;15039;50.830;4.730;2023-09-18T09:27:05;22.10;99.90
27619;DHT22;15039;50.830;4.730;2023-09-18T09:29:39;22.10;99.90
27619;DHT22;15039;50.830;4.730;2023-09-18T09:32:20;22.10;99.90
27619;DHT22;15039;50.830;4.730;2023-09-18T09:34:45;22.20;99.90
27619;DHT22;15039;50.830;4.730;2023-09-18T09:37:13;22.20;99.90
27619;DHT22;15039;50.830;4.730;2023-09-18T09:39:54;22.20;99.90
27619;DHT22;15039;50.830;4.730;2023-09-18T09:42:20;22.40;99.90
27619;DHT22;15039;50.830;4.730;2023-09-18T09:45:03;22.50;99.90
27619;DHT22;15039;50.830;4.730;2023-09-18T09:47:36;22.50;99.90
27619;DHT22;15039;50.830;4.730;2023-09-18T09:50:14;22.60;99.90
27619;DHT22;15039;50.830;4.730;2023-09-18T09:52:49;22.70;99.90
27619;DHT22;15039;50.830;4.730;2023-09-18T09:55:20;22.80;99.90
27619;DHT22;15039;50.830;4.730;2023-09-18T09:57:47;23.00;99.90
27619;DHT22;15039;50.830;4.730;2023-09-18T10:00:23;23.10;99.90
27619;DHT22;15039;50.830;4.730;2023-09-18T10:03:09;23.30;99.90
27619;DHT22;15039;50.830;4.730;2023-09-18T10:05:38;23.30;99.90
27619;DHT22;15039;50.830;4.730;2023-09-18T10:08:16;23.20;99.90
27619;DHT22;15039;50.830;4.730;2023-09-18T10:10:53;23.40;99.90
27619;DHT22;15039;50.830;4.730;2023-09-18T10:13:33;23.20;99.90
27619;DHT22;15039;50.830;4.730;2023-09-18T10:16:32;23.20;99.90
27619;DHT22;15039;50.830;4.730;2023-09-18T10:22:16;22.70;99.90
27619;DHT22;15039;50.830;4.730;2023-09-18T10:24:46;22.80;99.90
27619;DHT22;15039;50.830;4.730;2023-09-18T10:27:13;22.90;99.90
27619;DHT22;15039;50.830;4.730;2023-09-18T10:29:41;23.10;99.90
27619;DHT22;15039;50.830;4.730;2023-09-18T10:32:30;23.20;99.90
27619;DHT22;15039;50.830;4.730;2023-09-18T10:34:55;23.00;99.90
27619;DHT22;15039;50.830;4.730;2023-09-18T10:37:22;22.90;99.90
27619;DHT22;15039;50.830;4.730;2023-09-18T10:39:55;23.10;99.90
27619;DHT22;15039;50.830;4.730;2023-09-18T10:42:25;23.00;99.90
27619;DHT22;15039;50.830;4.730;2023-09-18T10:44:52;22.90;99.90
27619;DHT22;15039;50.830;4.730;2023-09-18T10:47:21;23.00;99.90
27619;DHT22;15039;50.830;4.730;2023-09-18T10:49:56;23.20;99.90
27619;DHT22;15039;50.830;4.730;2023-09-18T10:52:24;23.00;99.90
27619;DHT22;15039;50.830;4.730;2023-09-18T10:54:50;22.90;99.90
27619;DHT22;15039;50.830;4.730;2023-09-18T10:57:16;22.80;99.90
27619;DHT22;15039;50.830;4.730;2023-09-18T11:02:20;22.70;99.90
27619;DHT22;15039;50.830;4.730;2023-09-18T11:05:11;22.70;99.90
27619;DHT22;15039;50.830;4.730;2023-09-18T11:10:27;22.70;99.90
27619;DHT22;15039;50.830;4.730;2023-09-18T11:16:17;22.70;99.90
27619;DHT22;15039;50.830;4.730;2023-09-18T11:21:32;22.70;99.90
27619;DHT22;15039;50.830;4.730;2023-09-18T11:30:13;22.80;99.90
27619;DHT22;15039;50.830;4.730;2023-09-18T11:32:42;22.80;99.90
27619;DHT22;15039;50.830;4.730;2023-09-18T11:38:13;23.10;99.90
27619;DHT22;15039;50.830;4.730;2023-09-18T11:41:22;23.20;99.90
27619;DHT22;15039;50.830;4.730;2023-09-18T11:46:59;23.10;99.90
27619;DHT22;15039;50.830;4.730;2023-09-18T12:03:26;24.10;99.90
27619;DHT22;15039;50.830;4.730;2023-09-18T12:06:47;23.90;99.90
27619;DHT22;15039;50.830;4.730;2023-09-18T12:15:13;23.80;99.90
27619;DHT22;15039;50.830;4.730;2023-09-18T12:17:41;23.80;99.90
27619;DHT22;15039;50.830;4.730;2023-09-18T12:23:03;23.60;99.90
27619;DHT22;15039;50.830;4.730;2023-09-18T12:25:29;23.60;99.90
27619;DHT22;15039;50.830;4.730;2023-09-18T12:28:20;23.60;99.90
27619;DHT22;15039;50.830;4.730;2023-09-18T12:36:37;23.90;99.90
27619;DHT22;15039;50.830;4.730;2023-09-18T12:43:02;24.10;99.90
27619;DHT22;15039;50.830;4.730;2023-09-18T12:45:39;24.10;99.90
27619;DHT22;15039;50.830;4.730;2023-09-18T12:48:07;23.80;99.90
27619;DHT22;15039;50.830;4.730;2023-09-18T12:50:36;23.90;99.90
27619;DHT22;15039;50.830;4.730;2023-09-18T12:53:21;24.10;99.90
27619;DHT22;15039;50.830;4.730;2023-09-18T12:55:49;24.20;99.90
27619;DHT22;15039;50.830;4.730;2023-09-18T12:58:29;24.20;99.90
27619;DHT22;15039;50.830;4.730;2023-09-18T13:00:56;24.10;99.90
27619;DHT22;15039;50.830;4.730;2023-09-18T13:03:21;24.10;99.90
27619;DHT22;15039;50.830;4.730;2023-09-18T13:05:51;24.10;99.90
27619;DHT22;15039;50.830;4.730;2023-09-18T13:14:05;24.10;99.90
27619;DHT22;15039;50.830;4.730;2023-09-18T13:16:34;24.10;99.90
27619;DHT22;15039;50.830;4.730;2023-09-18T13:19:03;24.20;99.90
27619;DHT22;15039;50.830;4.730;2023-09-18T13:21:35;24.20;99.90
27619;DHT22;15039;50.830;4.730;2023-09-18T13:24:23;24.10;99.90
27619;DHT22;15039;50.830;4.730;2023-09-18T13:26:58;24.20;99.90
27619;DHT22;15039;50.830;4.730;2023-09-18T13:33:00;24.50;99.90
27619;DHT22;15039;50.830;4.730;2023-09-18T13:35:39;24.70;99.90
27619;DHT22;15039;50.830;4.730;2023-09-18T13:38:18;25.00;99.90
27619;DHT22;15039;50.830;4.730;2023-09-18T13:40:51;24.90;99.90
27619;DHT22;15039;50.830;4.730;2023-09-18T13:43:21;24.90;99.90
27619;DHT22;15039;50.830;4.730;2023-09-18T13:48:42;24.70;99.90
27619;DHT22;15039;50.830;4.730;2023-09-18T13:51:16;24.90;99.90
27619;DHT22;15039;50.830;4.730;2023-09-18T13:53:45;24.90;99.90
27619;DHT22;15039;50.830;4.730;2023-09-18T13:56:15;24.80;99.90
27619;DHT22;15039;50.830;4.730;2023-09-18T13:58:41;24.50;99.90
27619;DHT22;15039;50.830;4.730;2023-09-18T14:01:07;24.40;99.90
27619;DHT22;15039;50.830;4.730;2023-09-18T14:03:37;24.30;99.90
27619;DHT22;15039;50.830;4.730;2023-09-18T14:06:39;24.30;99.90
27619;DHT22;15039;50.830;4.730;2023-09-18T14:09:14;24.40;99.90
27619;DHT22;15039;50.830;4.730;2023-09-18T14:11:40;24.40;99.90
27619;DHT22;15039;50.830;4.730;2023-09-18T14:14:11;24.40;99.90
27619;DHT22;15039;50.830;4.730;2023-09-18T14:16:44;24.50;99.90
27619;DHT22;15039;50.830;4.730;2023-09-18T14:19:13;24.50;99.90
27619;DHT22;15039;50.830;4.730;2023-09-18T14:21:40;24.70;99.90
27619;DHT22;15039;50.830;4.730;2023-09-18T14:24:13;24.70;99.90
27619;DHT22;15039;50.830;4.730;2023-09-18T14:26:53;24.70;99.90
27619;DHT22;15039;50.830;4.730;2023-09-18T14:29:23;24.70;99.90
27619;DHT22;15039;50.830;4.730;2023-09-18T14:31:48;24.60;99.90
27619;DHT22;15039;50.830;4.730;2023-09-18T14:34:15;24.50;99.90
27619;DHT22;15039;50.830;4.730;2023-09-18T14:36:41;24.40;99.90
27619;DHT22;15039;50.830;4.730;2023-09-18T14:39:09;24.50;99.90
27619;DHT22;15039;50.830;4.730;2023-09-18T14:41:52;24.50;99.90
27619;DHT22;15039;50.830;4.730;2023-09-18T14:44:18;24.50;99.90
27619;DHT22;15039;50.830;4.730;2023-09-18T14:46:44;24.70;99.90
27619;DHT22;15039;50.830;4.730;2023-09-18T14:49:13;24.50;99.90
27619;DHT22;15039;50.830;4.730;2023-09-18T14:51:39;24.30;99.90
27619;DHT22;15039;50.830;4.730;2023-09-18T14:54:06;24.10;99.90
27619;DHT22;15039;50.830;4.730;2023-09-18T14:56:33;24.30;99.90
27619;DHT22;15039;50.830;4.730;2023-09-18T14:59:05;24.20;99.90
27619;DHT22;15039;50.830;4.730;2023-09-18T15:01:35;24.00;99.90
27619;DHT22;15039;50.830;4.730;2023-09-18T15:04:12;23.90;99.90
27619;DHT22;15039;50.830;4.730;2023-09-18T15:09:06;23.50;99.90
27619;DHT22;15039;50.830;4.730;2023-09-18T15:11:42;23.60;99.90
27619;DHT22;15039;50.830;4.730;2023-09-18T15:14:18;23.20;99.90
27619;DHT22;15039;50.830;4.730;2023-09-18T15:20:06;22.90;99.90
27619;DHT22;15039;50.830;4.730;2023-09-18T15:33:17;22.60;99.90
27619;DHT22;15039;50.830;4.730;2023-09-18T15:35:48;22.40;99.90
27619;DHT22;15039;50.830;4.730;2023-09-18T15:38:32;22.50;99.90
27619;DHT22;15039;50.830;4.730;2023-09-18T15:43:47;22.60;99.90
27619;DHT22;15039;50.830;4.730;2023-09-18T15:46:22;22.80;99.90
27619;DHT22;15039;50.830;4.730;2023-09-18T15:49:25;22.80;99.90
27619;DHT22;15039;50.830;4.730;2023-09-18T15:55:19;22.70;99.90
27619;DHT22;15039;50.830;4.730;2023-09-18T16:00:53;22.80;99.90
27619;DHT22;15039;50.830;4.730;2023-09-18T16:06:42;22.80;99.90
27619;DHT22;15039;50.830;4.730;2023-09-18T16:09:27;22.60;99.90
27619;DHT22;15039;50.830;4.730;2023-09-18T16:12:11;22.50;99.90
27619;DHT22;15039;50.830;4.730;2023-09-18T16:14:47;22.50;99.90
27619;DHT22;15039;50.830;4.730;2023-09-18T16:22:56;22.60;99.90
27619;DHT22;15039;50.830;4.730;2023-09-18T16:25:26;22.60;99.90
27619;DHT22;15039;50.830;4.730;2023-09-18T16:31:34;22.40;99.90
27619;DHT22;15039;50.830;4.730;2023-09-18T16:37:27;22.10;99.90
27619;DHT22;15039;50.830;4.730;2023-09-18T16:40:01;22.00;99.90
27619;DHT22;15039;50.830;4.730;2023-09-18T16:42:39;21.90;99.90
27619;DHT22;15039;50.830;4.730;2023-09-18T16:45:13;21.90;99.90
27619;DHT22;15039;50.830;4.730;2023-09-18T16:48:07;21.80;99.90
27619;DHT22;15039;50.830;4.730;2023-09-18T17:11:47;21.50;99.90
27619;DHT22;15039;50.830;4.730;2023-09-18T17:14:15;21.40;99.90
27619;DHT22;15039;50.830;4.730;2023-09-18T17:16:42;21.40;99.90
27619;DHT22;15039;50.830;4.730;2023-09-18T17:19:09;21.30;99.90
27619;DHT22;15039;50.830;4.730;2023-09-18T17:21:49;21.10;99.90
27619;DHT22;15039;50.830;4.730;2023-09-18T17:26:58;20.80;99.90
27619;DHT22;15039;50.830;4.730;2023-09-18T19:00:36;19.30;99.90
27619;DHT22;15039;50.830;4.730;2023-09-18T19:06:07;19.30;99.90
27619;DHT22;15039;50.830;4.730;2023-09-18T19:08:33;19.20;99.90
27619;DHT22;15039;50.830;4.730;2023-09-18T19:11:02;19.30;99.90
27619;DHT22;15039;50.830;4.730;2023-09-18T19:13:33;19.10;99.90
27619;DHT22;15039;50.830;4.730;2023-09-18T19:16:05;19.00;99.90
27619;DHT22;15039;50.830;4.730;2023-09-18T19:18:36;18.90;99.90
27619;DHT22;15039;50.830;4.730;2023-09-18T19:21:21;18.90;99.90
27619;DHT22;15039;50.830;4.730;2023-09-18T19:23:54;19.00;99.90
27619;DHT22;15039;50.830;4.730;2023-09-18T19:26:27;19.00;99.90
27619;DHT22;15039;50.830;4.730;2023-09-18T19:28:53;19.00;99.90
27619;DHT22;15039;50.830;4.730;2023-09-18T19:31:21;18.90;99.90
27619;DHT22;15039;50.830;4.730;2023-09-18T19:36:41;18.90;99.90
27619;DHT22;15039;50.830;4.730;2023-09-18T19:39:10;18.70;99.90
27619;DHT22;15039;50.830;4.730;2023-09-18T19:41:45;18.70;99.90
27619;DHT22;15039;50.830;4.730;2023-09-18T19:47:22;18.50;99.90
27619;DHT22;15039;50.830;4.730;2023-09-18T19:49:51;18.50;99.90
27619;DHT22;15039;50.830;4.730;2023-09-18T19:55:23;18.50;99.90
27619;DHT22;15039;50.830;4.730;2023-09-18T19:57:49;18.40;99.90
27619;DHT22;15039;50.830;4.730;2023-09-18T20:00:15;18.30;99.90
27619;DHT22;15039;50.830;4.730;2023-09-18T20:02:41;18.30;99.90
27619;DHT22;15039;50.830;4.730;2023-09-18T20:05:08;18.20;99.90
27619;DHT22;15039;50.830;4.730;2023-09-18T20:07:34;18.10;99.90
27619;DHT22;15039;50.830;4.730;2023-09-18T20:10:00;18.10;99.90
27619;DHT22;15039;50.830;4.730;2023-09-18T20:12:43;18.20;99.90
27619;DHT22;15039;50.830;4.730;2023-09-18T20:18:17;18.10;99.90
27619;DHT22;15039;50.830;4.730;2023-09-18T20:23:47;18.10;99.90
27619;DHT22;15039;50.830;4.730;2023-09-18T20:26:15;17.90;99.90
27619;DHT22;15039;50.830;4.730;2023-09-18T20:28:41;17.90;99.90
27619;DHT22;15039;50.830;4.730;2023-09-18T20:31:07;17.90;99.90
27619;DHT22;15039;50.830;4.730;2023-09-18T20:33:32;17.90;99.90
27619;DHT22;15039;50.830;4.730;2023-09-18T20:39:14;17.70;99.90
27619;DHT22;15039;50.830;4.730;2023-09-18T20:41:49;17.70;99.90
27619;DHT22;15039;50.830;4.730;2023-09-18T20:44:17;17.60;99.90
27619;DHT22;15039;50.830;4.730;2023-09-18T20:46:50;17.50;99.90
27619;DHT22;15039;50.830;4.730;2023-09-18T20:55:30;17.50;99.90
27619;DHT22;15039;50.830;4.730;2023-09-18T20:57:56;17.60;99.90
27619;DHT22;15039;50.830;4.730;2023-09-18T21:00:22;17.60;99.90
27619;DHT22;15039;50.830;4.730;2023-09-18T21:05:19;17.40;99.90
27619;DHT22;15039;50.830;4.730;2023-09-18T21:21:47;17.30;99.90
27619;DHT22;15039;50.830;4.730;2023-09-18T21:24:21;17.30;99.90
27619;DHT22;15039;50.830;4.730;2023-09-18T21:26:50;17.20;99.90